Time;durP1;ratioP1;P1;durP2;ratioP2;P2;SDS_P1;SDS_P2;PMS_P1;PMS_P2;Temp;Humidity;BMP_temperature;BMP_pressure;BME280_temperature;BME280_humidity;BME280_pressure;Samples;Min_cycle;Max_cycle;Signal;HPM_P1;HPM_P2
2022/07/19 00:00:59;;;;;;;34.33;16.08;;;;;;;;;;6151262;23;20084;-58
2022/07/19 00:03:27;;;;;;;;;;;;;;;;;;6149129;23;20025;-62
2022/07/19 00:05:54;;;;;;;34.08;15.23;;;;;;;;;;6149585;23;19923;-61
2022/07/19 00:08:21;;;;;;;38.92;16.80;;;;;;;;;;6150098;23;20056;-62
2022/07/19 00:10:48;;;;;;;31.35;16.73;;;;;;;;;;6149841;23;20430;-63
2022/07/19 00:13:22;;;;;;;38.95;16.88;;;;;;;;;;6149348;23;20036;-62
2022/07/19 00:15:52;;;;;;;30.20;15.90;;;;;;;;;;6149446;23;20120;-61
2022/07/19 00:18:19;;;;;;;;;;;;;;;;;;6149890;23;20072;-55
2022/07/19 00:20:46;;;;;;;40.05;16.67;;;;;;;;;;6149587;23;19921;-59
2022/07/19 00:23:13;;;;;;;32.83;17.08;;;;;;;;;;6150154;23;20049;-58
2022/07/19 00:25:40;;;;;;;31.60;15.82;;;;;;;;;;6124920;23;20072;-60
2022/07/19 00:28:08;;;;;;;44.03;18.13;;;;;;;;;;6149283;23;20486;-60
2022/07/19 00:30:36;;;;;;;37.03;18.67;;;;;;;;;;6124508;23;20021;-60
2022/07/19 00:33:08;;;;;;;35.83;17.83;;;;;;;;;;6150109;23;20028;-59
2022/07/19 00:35:36;;;;;;;45.28;18.45;;;;;;;;;;6149754;23;20088;-58
2022/07/19 00:38:04;;;;;;;45.25;18.00;;;;;;;;;;6149498;23;20030;-60
2022/07/19 00:40:31;;;;;;;42.70;16.88;;;;;;;;;;6150030;23;20025;-61
2022/07/19 00:42:59;;;;;;;50.45;18.60;;;;;;;;;;6148750;23;20026;-62
2022/07/19 00:45:26;;;;;;;43.55;17.65;;;;;;;;;;6150138;23;20021;-63
2022/07/19 00:47:53;;;;;;;36.58;17.50;;;;;;;;;;6149690;23;20025;-61
2022/07/19 00:50:21;;;;;;;40.78;18.17;;;;;;;;;;6149988;23;20029;-62
2022/07/19 00:52:48;;;;;;;;;;;;;;;;;;6150239;23;20097;-62
2022/07/19 00:55:17;;;;;;;36.55;16.95;;;;;;;;;;6148563;23;20254;-51
2022/07/19 00:57:45;;;;;;;41.75;18.48;;;;;;;;;;6148475;23;20026;-47
2022/07/19 01:00:13;;;;;;;38.60;15.98;;;;;;;;;;6149535;23;20053;-60
2022/07/19 01:02:40;;;;;;;40.78;16.15;;;;;;;;;;6149568;23;20471;-59
2022/07/19 01:05:08;;;;;;;47.15;18.95;;;;;;;;;;6149774;23;20031;-58
2022/07/19 01:07:39;;;;;;;42.08;18.02;;;;;;;;;;6149734;23;20021;-60
2022/07/19 01:10:07;;;;;;;47.17;18.38;;;;;;;;;;6150268;23;20025;-60
2022/07/19 01:12:35;;;;;;;44.33;18.70;;;;;;;;;;6147717;23;20459;-59
2022/07/19 01:15:03;;;;;;;55.40;20.63;;;;;;;;;;6149806;23;20095;-58
2022/07/19 01:17:30;;;;;;;;;;;;;;;;;;6149398;23;20036;-55
2022/07/19 01:19:57;;;;;;;43.08;17.58;;;;;;;;;;6150107;23;19920;-55
2022/07/19 01:22:25;;;;;;;49.95;20.42;;;;;;;;;;6149235;23;20025;-56
2022/07/19 01:24:52;;;;;;;55.60;19.77;;;;;;;;;;6149732;23;20033;-57
2022/07/19 01:27:19;;;;;;;58.60;21.73;;;;;;;;;;6149081;23;20052;-52
2022/07/19 01:29:47;;;;;;;45.03;19.05;;;;;;;;;;6150086;23;20080;-52
2022/07/19 01:32:14;;;;;;;42.47;18.60;;;;;;;;;;6148425;23;20418;-55
2022/07/19 01:34:41;;;;;;;60.40;19.98;;;;;;;;;;6149001;23;20517;-53
2022/07/19 01:37:09;;;;;;;;;;;;;;;;;;6150132;23;20021;-53
2022/07/19 01:39:36;;;;;;;58.67;21.25;;;;;;;;;;6149716;23;19916;-56
2022/07/19 01:42:03;;;;;;;58.60;20.80;;;;;;;;;;6149104;23;20359;-54
2022/07/19 01:44:31;;;;;;;60.90;21.20;;;;;;;;;;6148990;23;20034;-55
2022/07/19 01:46:58;;;;;;;59.35;20.90;;;;;;;;;;6150198;23;20032;-55
2022/07/19 01:49:25;;;;;;;56.88;20.20;;;;;;;;;;6149433;23;20022;-52
2022/07/19 01:51:52;;;;;;;57.63;20.52;;;;;;;;;;6149422;23;20021;-61
2022/07/19 01:54:20;;;;;;;51.42;21.10;;;;;;;;;;6148024;23;20092;-59
2022/07/19 01:56:47;;;;;;;62.63;21.58;;;;;;;;;;6149795;23;20029;-63
2022/07/19 01:59:14;;;;;;;53.55;20.45;;;;;;;;;;6148419;23;20522;-61
2022/07/19 02:01:42;;;;;;;67.57;23.35;;;;;;;;;;6149017;23;20021;-62
2022/07/19 02:04:09;;;;;;;63.95;22.08;;;;;;;;;;6149870;23;20415;-63
2022/07/19 02:06:36;;;;;;;;;;;;;;;;;;6150502;23;20018;-62
2022/07/19 02:09:04;;;;;;;55.33;23.10;;;;;;;;;;6150094;23;19927;-63
2022/07/19 02:11:37;;;;;;;60.03;23.00;;;;;;;;;;6148980;23;20041;-59
2022/07/19 02:14:05;;;;;;;60.58;22.45;;;;;;;;;;6150566;23;20079;-62
2022/07/19 02:16:33;;;;;;;55.90;23.00;;;;;;;;;;6151489;23;20088;-57
2022/07/19 02:19:00;;;;;;;;;;;;;;;;;;6151540;23;20030;-55
2022/07/19 02:21:27;;;;;;;53.58;22.05;;;;;;;;;;6150872;23;19928;-59
2022/07/19 02:23:55;;;;;;;60.85;22.52;;;;;;;;;;6150344;23;20032;-58
2022/07/19 02:26:22;;;;;;;;;;;;;;;;;;6152264;23;20029;-59
2022/07/19 02:28:49;;;;;;;76.93;24.65;;;;;;;;;;6149287;23;19923;-58
2022/07/19 02:31:17;;;;;;;53.88;23.95;;;;;;;;;;6149272;23;20025;-49
2022/07/19 02:33:44;;;;;;;66.03;26.00;;;;;;;;;;6150806;23;20039;-62
2022/07/19 02:36:11;;;;;;;62.97;25.30;;;;;;;;;;6152375;23;20025;-61
2022/07/19 02:38:39;;;;;;;64.90;24.58;;;;;;;;;;6151044;23;20456;-59
2022/07/19 02:41:06;;;;;;;60.53;25.67;;;;;;;;;;6150768;23;20363;-56
2022/07/19 02:43:33;;;;;;;79.22;27.17;;;;;;;;;;6150560;23;20029;-60
2022/07/19 02:46:00;;;;;;;65.60;26.38;;;;;;;;;;6150638;23;20032;-58
2022/07/19 02:48:28;;;;;;;73.57;26.20;;;;;;;;;;6150392;23;20032;-60
2022/07/19 02:50:55;;;;;;;88.95;27.13;;;;;;;;;;6151218;23;20033;-53
2022/07/19 02:53:23;;;;;;;73.22;25.90;;;;;;;;;;6149749;23;20045;-52
2022/07/19 02:55:50;;;;;;;73.72;26.65;;;;;;;;;;6151132;23;20029;-49
2022/07/19 02:58:18;;;;;;;;;;;;;;;;;;6150850;23;20028;-53
2022/07/19 03:00:45;;;;;;;71.20;24.75;;;;;;;;;;6151044;23;20622;-51
2022/07/19 03:05:59;;;;;;;75.82;27.77;;;;;;;;;;6151214;23;20467;-50
2022/07/19 03:08:26;;;;;;;76.38;27.08;;;;;;;;;;6150413;23;20084;-56
2022/07/19 03:10:53;;;;;;;147.63;30.17;;;;;;;;;;6150564;23;20025;-55
2022/07/19 03:13:21;;;;;;;80.18;27.83;;;;;;;;;;6150524;23;20021;-62
2022/07/19 03:15:49;;;;;;;86.75;29.08;;;;;;;;;;6150873;23;20100;-62
2022/07/19 03:18:16;;;;;;;76.38;26.77;;;;;;;;;;6149173;23;20080;-62
2022/07/19 03:20:43;;;;;;;80.57;29.02;;;;;;;;;;6150482;23;20037;-62
2022/07/19 03:23:11;;;;;;;81.00;28.00;;;;;;;;;;6150525;23;20226;-62
2022/07/19 03:25:38;;;;;;;71.15;27.92;;;;;;;;;;6150368;23;20022;-63
2022/07/19 03:28:05;;;;;;;79.18;28.17;;;;;;;;;;6150112;23;20025;-62
2022/07/19 03:30:33;;;;;;;84.00;28.02;;;;;;;;;;6150674;23;20030;-50
2022/07/19 03:33:00;;;;;;;55.60;25.38;;;;;;;;;;6149964;23;20293;-53
2022/07/19 03:35:28;;;;;;;70.65;27.60;;;;;;;;;;6149919;23;20479;-51
2022/07/19 03:37:55;;;;;;;76.40;27.50;;;;;;;;;;6150739;23;20021;-53
2022/07/19 03:40:22;;;;;;;64.88;27.33;;;;;;;;;;6150459;23;20022;-53
2022/07/19 03:42:50;;;;;;;75.35;26.23;;;;;;;;;;6150142;23;20052;-52
2022/07/19 03:45:17;;;;;;;70.00;26.88;;;;;;;;;;6150065;23;20468;-53
2022/07/19 03:47:44;;;;;;;69.43;25.85;;;;;;;;;;6151012;23;20079;-56
2022/07/19 03:50:11;;;;;;;76.50;25.80;;;;;;;;;;6149976;23;20076;-54
2022/07/19 03:52:39;;;;;;;67.53;25.08;;;;;;;;;;6149445;23;20025;-55
2022/07/19 03:55:06;;;;;;;68.15;25.42;;;;;;;;;;6149305;23;20028;-49
2022/07/19 03:57:34;;;;;;;60.22;25.95;;;;;;;;;;6149523;23;20884;-54
2022/07/19 04:00:01;;;;;;;68.95;26.42;;;;;;;;;;6150521;23;20021;-54
2022/07/19 04:02:29;;;;;;;;;;;;;;;;;;6151273;23;20022;-56
2022/07/19 04:04:56;;;;;;;46.15;22.88;;;;;;;;;;6150059;23;19931;-54
2022/07/19 04:07:23;;;;;;;59.00;24.40;;;;;;;;;;6150449;23;20021;-62
2022/07/19 04:09:50;;;;;;;60.90;25.17;;;;;;;;;;6149571;23;20052;-54
2022/07/19 04:12:18;;;;;;;56.58;24.05;;;;;;;;;;6148934;23;20026;-56
2022/07/19 04:14:45;;;;;;;75.30;24.92;;;;;;;;;;6150752;23;20076;-53
2022/07/19 04:17:12;;;;;;;50.53;24.02;;;;;;;;;;6149766;23;20567;-58
2022/07/19 04:19:40;;;;;;;53.55;20.65;;;;;;;;;;6149820;23;20049;-58
2022/07/19 04:22:07;;;;;;;62.67;21.75;;;;;;;;;;6150779;23;20025;-56
2022/07/19 04:24:34;;;;;;;50.60;20.15;;;;;;;;;;6150023;23;20030;-58
2022/07/19 04:27:02;;;;;;;41.33;19.65;;;;;;;;;;6149209;23;20029;-61
2022/07/19 04:29:29;;;;;;;51.80;19.63;;;;;;;;;;6148525;23;20033;-51
2022/07/19 04:31:56;;;;;;;49.22;19.10;;;;;;;;;;6150678;23;20025;-52
2022/07/19 04:34:23;;;;;;;;;;;;;;;;;;6150222;23;20033;-51
2022/07/19 04:36:51;;;;;;;43.05;18.73;;;;;;;;;;6150037;23;19924;-51
2022/07/19 04:39:18;;;;;;;45.10;18.33;;;;;;;;;;6149193;23;20033;-53
2022/07/19 04:41:45;;;;;;;47.22;19.77;;;;;;;;;;6149936;23;20021;-48
2022/07/19 04:44:12;;;;;;;51.90;19.70;;;;;;;;;;6149715;23;20537;-49
2022/07/19 04:46:40;;;;;;;42.88;19.02;;;;;;;;;;6150457;23;20483;-54
2022/07/19 04:49:13;;;;;;;42.88;17.88;;;;;;;;;;6149138;23;20107;-49
2022/07/19 04:51:40;;;;;;;50.63;18.60;;;;;;;;;;6124563;23;20080;-45
2022/07/19 04:54:07;;;;;;;40.33;16.90;;;;;;;;;;6149976;23;20021;-45
2022/07/19 04:56:35;;;;;;;38.63;16.80;;;;;;;;;;6149839;23;20099;-49
2022/07/19 04:59:02;;;;;;;42.25;17.38;;;;;;;;;;6149281;23;20518;-49
2022/07/19 05:01:30;;;;;;;42.70;17.95;;;;;;;;;;6148246;23;20021;-50
2022/07/19 05:03:58;;;;;;;43.50;18.17;;;;;;;;;;6149719;23;20064;-54
2022/07/19 05:06:25;;;;;;;41.20;16.55;;;;;;;;;;6149555;23;20021;-57
2022/07/19 05:08:53;;;;;;;37.47;16.52;;;;;;;;;;6149659;23;20026;-56
2022/07/19 05:11:20;;;;;;;38.78;16.63;;;;;;;;;;6149921;23;20025;-54
2022/07/19 05:13:47;;;;;;;34.63;14.95;;;;;;;;;;6123682;23;20493;-51
2022/07/19 05:16:14;;;;;;;34.15;16.33;;;;;;;;;;6149261;23;20089;-50
2022/07/19 05:18:42;;;;;;;;;;;;;;;;;;6150114;23;20538;-52
2022/07/19 05:21:09;;;;;;;40.60;15.77;;;;;;;;;;6150208;23;19916;-51
2022/07/19 05:23:36;;;;;;;41.40;16.48;;;;;;;;;;6149374;23;20325;-61
2022/07/19 05:26:04;;;;;;;41.08;15.77;;;;;;;;;;6149680;23;20025;-61
2022/07/19 05:28:31;;;;;;;50.90;16.90;;;;;;;;;;6147918;23;20487;-59
2022/07/19 05:31:02;;;;;;;45.72;17.00;;;;;;;;;;6150037;23;20057;-61
2022/07/19 05:33:30;;;;;;;38.50;15.50;;;;;;;;;;6122150;23;20053;-60
2022/07/19 05:35:57;;;;;;;33.65;14.95;;;;;;;;;;6149774;23;20068;-60
2022/07/19 05:38:24;;;;;;;29.52;14.18;;;;;;;;;;6149049;23;20029;-61
2022/07/19 05:40:52;;;;;;;33.13;14.05;;;;;;;;;;6148478;23;20025;-48
2022/07/19 05:43:19;;;;;;;32.17;13.48;;;;;;;;;;6148464;23;20482;-53
2022/07/19 05:45:46;;;;;;;29.67;13.73;;;;;;;;;;6145555;23;20033;-54
2022/07/19 05:48:14;;;;;;;48.28;15.55;;;;;;;;;;6149864;23;20026;-54
2022/07/19 05:50:41;;;;;;;32.28;13.25;;;;;;;;;;6150636;23;20024;-54
2022/07/19 05:53:08;;;;;;;33.55;13.80;;;;;;;;;;6151824;23;20025;-51
2022/07/19 05:55:37;;;;;;;40.03;14.35;;;;;;;;;;6151018;23;20026;-55
2022/07/19 05:58:04;;;;;;;35.83;13.55;;;;;;;;;;6149709;23;20222;-53
2022/07/19 06:00:32;;;;;;;28.75;12.73;;;;;;;;;;6150872;23;20026;-56
2022/07/19 06:02:59;;;;;;;32.95;13.23;;;;;;;;;;6151081;23;20482;-48
2022/07/19 06:05:27;;;;;;;33.88;12.95;;;;;;;;;;6151183;23;20037;-57
2022/07/19 06:07:54;;;;;;;;;;;;;;;;;;6152215;23;20025;-58
2022/07/19 06:10:21;;;;;;;39.70;12.20;;;;;;;;;;6150440;23;19925;-57
2022/07/19 06:12:48;;;;;;;29.30;11.50;;;;;;;;;;6148826;23;20092;-57
2022/07/19 06:15:16;;;;;;;29.85;12.10;;;;;;;;;;6151072;23;20407;-58
2022/07/19 06:17:44;;;;;;;33.08;13.38;;;;;;;;;;6151374;23;20029;-57
2022/07/19 06:20:11;;;;;;;31.58;12.55;;;;;;;;;;6150923;23;20025;-58
2022/07/19 06:22:38;;;;;;;;;;;;;;;;;;6152181;23;20030;-54
2022/07/19 06:25:06;;;;;;;18.88;10.43;;;;;;;;;;6150887;23;19967;-55
2022/07/19 06:27:33;;;;;;;24.35;10.40;;;;;;;;;;6151180;23;20104;-55
2022/07/19 06:30:02;;;;;;;26.73;9.43;;;;;;;;;;6151156;23;20107;-55
2022/07/19 06:32:29;;;;;;;20.05;8.98;;;;;;;;;;6151199;23;20529;-52
2022/07/19 06:34:57;;;;;;;14.00;8.48;;;;;;;;;;6150493;23;20022;-56
2022/07/19 06:37:24;;;;;;;17.05;8.27;;;;;;;;;;6149892;23;20025;-52
2022/07/19 06:39:51;;;;;;;;;;;;;;;;;;6148672;23;20053;-45
2022/07/19 06:42:19;;;;;;;20.02;8.45;;;;;;;;;;6149632;23;19921;-46
2022/07/19 06:44:46;;;;;;;;;;;;;;;;;;6151330;23;20080;-50
2022/07/19 06:47:13;;;;;;;11.85;6.20;;;;;;;;;;6150486;23;19920;-52
2022/07/19 06:49:41;;;;;;;14.40;7.10;;;;;;;;;;6150479;23;20485;-49
2022/07/19 06:52:08;;;;;;;16.25;6.97;;;;;;;;;;6151649;23;20022;-48
2022/07/19 06:54:40;;;;;;;11.80;5.75;;;;;;;;;;6149744;23;20022;-53
2022/07/19 06:57:08;;;;;;;13.35;6.75;;;;;;;;;;6150782;23;20021;-61
2022/07/19 06:59:35;;;;;;;;;;;;;;;;;;6150616;23;20029;-55
2022/07/19 07:02:04;;;;;;;17.77;7.35;;;;;;;;;;6151166;23;19971;-63
2022/07/19 07:04:31;;;;;;;17.60;7.80;;;;;;;;;;6150817;23;20100;-62
2022/07/19 07:07:11;;;;;;;15.57;7.72;;;;;;;;;;6150923;23;20100;-63
2022/07/19 07:09:38;;;;;;;;;;;;;;;;;;6149658;23;20103;-63
2022/07/19 07:12:05;;;;;;;13.10;7.00;;;;;;;;;;6150227;23;19924;-63
2022/07/19 07:14:33;;;;;;;13.48;7.13;;;;;;;;;;6150805;23;20025;-63
2022/07/19 07:17:00;;;;;;;16.90;7.28;;;;;;;;;;6151611;23;20029;-61
2022/07/19 07:19:27;;;;;;;17.73;7.50;;;;;;;;;;6150851;23;20025;-51
2022/07/19 07:21:57;;;;;;;13.07;7.47;;;;;;;;;;6151709;23;20040;-49
2022/07/19 07:24:24;;;;;;;14.45;7.15;;;;;;;;;;6151133;23;20467;-47
2022/07/19 07:26:51;;;;;;;11.77;6.90;;;;;;;;;;6151692;23;20026;-51
2022/07/19 07:29:19;;;;;;;12.88;7.15;;;;;;;;;;6150512;23;20032;-50
2022/07/19 07:31:47;;;;;;;10.93;6.13;;;;;;;;;;6152181;23;20088;-50
2022/07/19 07:34:14;;;;;;;;;;;;;;;;;;6150407;23;20026;-55
2022/07/19 07:36:41;;;;;;;14.57;6.53;;;;;;;;;;6151225;23;20668;-57
2022/07/19 07:39:08;;;;;;;11.68;5.65;;;;;;;;;;6151579;23;20022;-53
2022/07/19 07:41:36;;;;;;;;;;;;;;;;;;6150973;23;20100;-55
2022/07/19 07:44:07;;;;;;;14.20;5.85;;;;;;;;;;6151538;23;19916;-56
2022/07/19 07:46:35;;;;;;;10.30;5.75;;;;;;;;;;6151302;23;20141;-50
2022/07/19 07:49:02;;;;;;;;;;;;;;;;;;6150658;23;20018;-52
2022/07/19 07:51:34;;;;;;;9.77;5.20;;;;;;;;;;6150936;23;20338;-53
2022/07/19 07:54:11;;;;;;;8.20;5.35;;;;;;;;;;6150011;23;20120;-57
2022/07/19 07:56:39;;;;;;;6.50;4.78;;;;;;;;;;6150859;23;20080;-58
2022/07/19 07:59:07;;;;;;;8.43;4.70;;;;;;;;;;6151642;23;20025;-63
2022/07/19 08:01:34;;;;;;;7.57;4.00;;;;;;;;;;6150434;23;20022;-63
2022/07/19 08:04:02;;;;;;;7.40;4.72;;;;;;;;;;6150565;23;20542;-63
2022/07/19 08:06:29;;;;;;;;;;;;;;;;;;6151825;23;20084;-65
2022/07/19 08:08:56;;;;;;;7.68;4.55;;;;;;;;;;6150797;23;19940;-63
2022/07/19 08:11:23;;;;;;;6.05;4.20;;;;;;;;;;6151167;23;20026;-63
2022/07/19 08:13:51;;;;;;;9.70;4.18;;;;;;;;;;6151034;23;20057;-59
2022/07/19 08:16:18;;;;;;;8.35;4.18;;;;;;;;;;6149641;23;20755;-49
2022/07/19 08:18:45;;;;;;;6.15;3.85;;;;;;;;;;6150328;23;20053;-63
2022/07/19 08:21:13;;;;;;;5.80;3.55;;;;;;;;;;6150212;23;20463;-62
2022/07/19 08:23:41;;;;;;;5.93;3.95;;;;;;;;;;6151246;23;20080;-63
2022/07/19 08:26:09;;;;;;;7.20;3.95;;;;;;;;;;6150540;23;20362;-63
2022/07/19 08:28:36;;;;;;;5.05;3.53;;;;;;;;;;6124875;23;20053;-63
2022/07/19 08:31:04;;;;;;;6.35;3.88;;;;;;;;;;6148578;23;20057;-63
2022/07/19 08:33:39;;;;;;;5.55;3.78;;;;;;;;;;6150603;23;20017;-63
2022/07/19 08:36:09;;;;;;;6.43;3.97;;;;;;;;;;6150122;23;20025;-60
2022/07/19 08:38:38;;;;;;;9.90;4.32;;;;;;;;;;6149640;23;20527;-61
2022/07/19 08:41:06;;;;;;;4.53;3.50;;;;;;;;;;6149422;23;20064;-61
2022/07/19 08:43:33;;;;;;;9.50;4.20;;;;;;;;;;6150125;23;20032;-60
2022/07/19 08:46:01;;;;;;;7.57;4.32;;;;;;;;;;6149484;23;20029;-61
2022/07/19 08:48:34;;;;;;;6.10;4.38;;;;;;;;;;6150233;23;20112;-60
2022/07/19 08:51:12;;;;;;;6.47;4.00;;;;;;;;;;6148974;23;20048;-61
2022/07/19 08:53:40;;;;;;;;;;;;;;;;;;6150466;23;20026;-59
2022/07/19 08:58:54;;;;;;;6.30;3.80;;;;;;;;;;6150159;23;20076;-50
2022/07/19 09:01:21;;;;;;;;;;;;;;;;;;6148234;23;20021;-51
2022/07/19 09:04:07;;;;;;;7.90;4.10;;;;;;;;;;6150004;23;20000;-48
2022/07/19 09:06:49;;;;;;;5.63;3.72;;;;;;;;;;6150135;23;20088;-48
2022/07/19 09:09:17;;;;;;;5.05;3.63;;;;;;;;;;6149361;23;20083;-46
2022/07/19 09:11:49;;;;;;;6.38;3.40;;;;;;;;;;6151173;23;20036;-49
2022/07/19 09:14:17;;;;;;;5.80;3.78;;;;;;;;;;6150181;23;20029;-47
2022/07/19 09:17:02;;;;;;;5.63;3.22;;;;;;;;;;6149932;23;20022;-47
2022/07/19 09:19:33;;;;;;;5.10;3.70;;;;;;;;;;6150333;23;20025;-47
2022/07/19 09:22:02;;;;;;;6.22;3.90;;;;;;;;;;6150235;23;20022;-51
2022/07/19 09:24:31;;;;;;;5.63;3.67;;;;;;;;;;6148764;23;20468;-53
2022/07/19 09:27:13;;;;;;;4.28;3.38;;;;;;;;;;6148012;23;20588;-48
2022/07/19 09:29:45;;;;;;;4.28;3.15;;;;;;;;;;6149509;23;20364;-52
2022/07/19 09:32:14;;;;;;;4.30;3.30;;;;;;;;;;6149001;23;20133;-55
2022/07/19 09:34:52;;;;;;;4.32;3.00;;;;;;;;;;6147148;23;20025;-57
2022/07/19 09:37:25;;;;;;;5.18;3.10;;;;;;;;;;6149077;23;20079;-57
2022/07/19 09:39:53;;;;;;;4.80;3.17;;;;;;;;;;6149872;23;20092;-57
2022/07/19 09:42:24;;;;;;;4.60;3.50;;;;;;;;;;6149843;23;20021;-57
2022/07/19 09:44:58;;;;;;;4.38;3.10;;;;;;;;;;6149445;23;20026;-57
2022/07/19 09:47:32;;;;;;;4.63;3.03;;;;;;;;;;6147173;23;20054;-57
2022/07/19 09:50:00;;;;;;;4.45;3.13;;;;;;;;;;6149263;23;20092;-60
2022/07/19 09:52:28;;;;;;;5.00;3.03;;;;;;;;;;6149892;23;20025;-49
2022/07/19 09:55:05;;;;;;;4.50;3.00;;;;;;;;;;6149404;23;20460;-51
2022/07/19 09:57:34;;;;;;;5.50;3.20;;;;;;;;;;6149738;23;20029;-51
2022/07/19 10:00:04;;;;;;;5.28;2.90;;;;;;;;;;6149271;23;20056;-46
2022/07/19 10:02:33;;;;;;;4.22;3.20;;;;;;;;;;6149164;23;20080;-49
2022/07/19 10:05:02;;;;;;;5.45;3.17;;;;;;;;;;6147923;23;20053;-51
2022/07/19 10:07:29;;;;;;;6.38;3.40;;;;;;;;;;6149808;23;20493;-55
2022/07/19 10:09:57;;;;;;;4.18;2.88;;;;;;;;;;6148971;23;20053;-58
2022/07/19 10:12:24;;;;;;;4.57;2.95;;;;;;;;;;6149504;23;20163;-55
2022/07/19 10:14:51;;;;;;;4.00;3.00;;;;;;;;;;6149564;23;20084;-52
2022/07/19 10:17:18;;;;;;;4.70;2.92;;;;;;;;;;6149600;23;20044;-56
2022/07/19 10:19:47;;;;;;;4.20;2.80;;;;;;;;;;6148594;23;20045;-54
2022/07/19 10:22:20;;;;;;;6.57;2.92;;;;;;;;;;6148547;23;20475;-55
2022/07/19 10:24:52;;;;;;;4.90;2.88;;;;;;;;;;6148920;23;20134;-55
2022/07/19 10:27:35;;;;;;;4.75;3.17;;;;;;;;;;6147212;23;20080;-59
2022/07/19 10:30:08;;;;;;;4.28;2.80;;;;;;;;;;6150105;23;20033;-54
2022/07/19 10:32:36;;;;;;;4.00;2.70;;;;;;;;;;6148958;23;20048;-54
2022/07/19 10:35:17;;;;;;;6.60;3.05;;;;;;;;;;6150232;23;20021;-54
2022/07/19 10:37:45;;;;;;;5.45;2.70;;;;;;;;;;6151875;23;20479;-50
2022/07/19 10:40:13;;;;;;;6.80;2.90;;;;;;;;;;6151176;23;20150;-55
2022/07/19 10:42:58;;;;;;;3.95;2.60;;;;;;;;;;6151322;23;20025;-54
2022/07/19 10:45:26;;;;;;;6.53;3.20;;;;;;;;;;6149945;23;20037;-52
2022/07/19 10:47:58;;;;;;;4.00;2.75;;;;;;;;;;6151073;23;20029;-53
2022/07/19 10:50:41;;;;;;;3.10;2.50;;;;;;;;;;6149992;23;20407;-53
2022/07/19 10:53:09;;;;;;;4.93;2.83;;;;;;;;;;6150280;23;20025;-50
2022/07/19 10:55:36;;;;;;;6.07;2.85;;;;;;;;;;6149939;23;20646;-50
2022/07/19 10:58:03;;;;;;;;;;;;;;;;;;6151265;23;20527;-52
2022/07/19 11:00:32;;;;;;;4.07;2.85;;;;;;;;;;6151017;23;19960;-52
2022/07/19 11:03:18;;;;;;;3.85;2.70;;;;;;;;;;6151297;23;20025;-52
2022/07/19 11:05:47;;;;;;;4.82;3.08;;;;;;;;;;6150496;23;20236;-58
2022/07/19 11:08:14;;;;;;;10.10;2.97;;;;;;;;;;6123894;23;20022;-56
2022/07/19 11:10:42;;;;;;;5.43;2.90;;;;;;;;;;6150990;23;20081;-50
2022/07/19 11:13:09;;;;;;;4.38;3.05;;;;;;;;;;6150228;23;20021;-52
2022/07/19 11:15:36;;;;;;;4.57;3.17;;;;;;;;;;6148742;23;20087;-53
2022/07/19 11:18:08;;;;;;;4.28;2.88;;;;;;;;;;6150527;23;20025;-53
2022/07/19 11:20:36;;;;;;;5.75;3.03;;;;;;;;;;6149091;23;20049;-52
2022/07/19 11:23:04;;;;;;;5.78;3.05;;;;;;;;;;6150994;23;20026;-52
2022/07/19 11:25:36;;;;;;;5.95;2.88;;;;;;;;;;6150669;23;20084;-58
2022/07/19 11:28:03;;;;;;;5.53;3.55;;;;;;;;;;6151289;23;20052;-56
2022/07/19 11:30:32;;;;;;;5.63;3.53;;;;;;;;;;6149039;23;20101;-57
2022/07/19 11:33:01;;;;;;;5.07;3.05;;;;;;;;;;6150629;23;20022;-58
2022/07/19 11:35:29;;;;;;;4.80;3.63;;;;;;;;;;6150549;23;20025;-58
2022/07/19 11:37:57;;;;;;;27.77;4.60;;;;;;;;;;6149549;23;20096;-57
2022/07/19 11:40:25;;;;;;;5.22;3.15;;;;;;;;;;6150050;23;20036;-57
2022/07/19 11:42:53;;;;;;;8.38;3.58;;;;;;;;;;6150556;23;20052;-51
2022/07/19 11:45:44;;;;;;;6.93;3.80;;;;;;;;;;6148779;23;20029;-61
2022/07/19 11:48:12;;;;;;;5.60;3.25;;;;;;;;;;6150211;23;20088;-59
2022/07/19 11:50:41;;;;;;;7.63;3.75;;;;;;;;;;6121310;23;20029;-57
2022/07/19 11:53:20;;;;;;;5.32;3.45;;;;;;;;;;6149186;23;20018;-58
2022/07/19 11:55:48;;;;;;;7.40;2.88;;;;;;;;;;6149959;23;20048;-55
2022/07/19 11:58:16;;;;;;;7.60;3.40;;;;;;;;;;6149664;23;20224;-58
2022/07/19 12:00:44;;;;;;;6.03;3.30;;;;;;;;;;6149585;23;20493;-58
2022/07/19 12:03:16;;;;;;;8.60;3.60;;;;;;;;;;6124003;23;20538;-60
2022/07/19 12:05:57;;;;;;;4.22;3.22;;;;;;;;;;6150274;23;20726;-58
2022/07/19 12:08:37;;;;;;;5.65;3.50;;;;;;;;;;6150084;23;20021;-55
2022/07/19 12:11:17;;;;;;;5.88;3.78;;;;;;;;;;6150213;23;20052;-54
2022/07/19 12:13:45;;;;;;;8.25;3.45;;;;;;;;;;6149867;23;20072;-57
2022/07/19 12:16:16;;;;;;;6.28;3.53;;;;;;;;;;6149108;23;20048;-58
2022/07/19 12:18:54;;;;;;;5.80;3.47;;;;;;;;;;6149311;23;20092;-57
2022/07/19 12:21:21;;;;;;;;;;;;;;;;;;6149967;23;20472;-55
2022/07/19 12:24:07;;;;;;;5.30;3.25;;;;;;;;;;6150509;23;19917;-52
2022/07/19 12:26:35;;;;;;;6.63;3.45;;;;;;;;;;6150094;23;20025;-57
2022/07/19 12:29:21;;;;;;;9.63;3.08;;;;;;;;;;6150365;23;20446;-58
2022/07/19 12:31:50;;;;;;;5.88;3.03;;;;;;;;;;6148687;23;20414;-57
2022/07/19 12:34:17;;;;;;;3.33;2.65;;;;;;;;;;6149678;23;20029;-57
2022/07/19 12:36:45;;;;;;;5.82;2.95;;;;;;;;;;6149086;23;20205;-55
2022/07/19 12:39:19;;;;;;;5.70;3.10;;;;;;;;;;6149643;23;20021;-59
2022/07/19 12:41:58;;;;;;;6.93;3.35;;;;;;;;;;6149761;23;20379;-62
2022/07/19 12:44:26;;;;;;;5.68;3.03;;;;;;;;;;6149263;23;20777;-49
2022/07/19 12:46:53;;;;;;;7.63;2.90;;;;;;;;;;6149707;23;20025;-56
2022/07/19 12:49:42;;;;;;;4.63;2.90;;;;;;;;;;6127973;23;20542;-55
2022/07/19 12:52:10;;;;;;;5.72;3.00;;;;;;;;;;6148868;23;20312;-56
2022/07/19 12:54:37;;;;;;;7.70;3.35;;;;;;;;;;6150045;23;20037;-55
2022/07/19 12:57:04;;;;;;;;;;;;;;;;;;6150465;23;20021;-56
2022/07/19 12:59:40;;;;;;;5.32;2.90;;;;;;;;;;6149297;23;20253;-52
2022/07/19 13:02:08;;;;;;;7.63;3.25;;;;;;;;;;6150043;23;20030;-58
2022/07/19 13:04:36;;;;;;;6.43;3.22;;;;;;;;;;6149501;23;20028;-61
2022/07/19 13:07:04;;;;;;;6.50;3.35;;;;;;;;;;6150047;23;20137;-60
2022/07/19 13:09:31;;;;;;;6.03;3.33;;;;;;;;;;6150558;23;20080;-61
2022/07/19 13:12:00;;;;;;;5.68;3.40;;;;;;;;;;6149828;23;20021;-60
2022/07/19 13:14:27;;;;;;;5.32;2.78;;;;;;;;;;6149371;23;20084;-60
2022/07/19 13:16:54;;;;;;;;;;;;;;;;;;6149917;23;20510;-61
2022/07/19 13:19:22;;;;;;;8.57;3.60;;;;;;;;;;6149234;23;19917;-61
2022/07/19 13:21:49;;;;;;;6.55;3.22;;;;;;;;;;6149846;23;20068;-55
2022/07/19 13:24:16;;;;;;;9.27;3.50;;;;;;;;;;6150622;23;20022;-54
2022/07/19 13:27:04;;;;;;;6.28;3.40;;;;;;;;;;6149279;23;20043;-53
2022/07/19 13:29:31;;;;;;;5.85;3.15;;;;;;;;;;6149537;23;20021;-54
2022/07/19 13:32:00;;;;;;;7.53;3.20;;;;;;;;;;6149300;23;20025;-53
2022/07/19 13:34:28;;;;;;;6.90;3.28;;;;;;;;;;6148009;23;20096;-51
2022/07/19 13:36:55;;;;;;;6.18;3.55;;;;;;;;;;6149020;23;20025;-60
2022/07/19 13:39:23;;;;;;;6.68;3.50;;;;;;;;;;6149659;23;20021;-60
2022/07/19 13:41:51;;;;;;;7.05;3.78;;;;;;;;;;6148204;23;20080;-56
2022/07/19 13:44:18;;;;;;;5.45;3.60;;;;;;;;;;6148389;23;20018;-56
2022/07/19 13:46:46;;;;;;;7.78;3.60;;;;;;;;;;6147713;23;20553;-57
2022/07/19 13:49:13;;;;;;;;;;;;;;;;;;6148382;23;20501;-55
2022/07/19 13:51:40;;;;;;;9.82;3.72;;;;;;;;;;6149781;23;20385;-52
2022/07/19 13:54:07;;;;;;;8.23;3.47;;;;;;;;;;6149920;23;20521;-56
2022/07/19 13:56:35;;;;;;;4.75;3.00;;;;;;;;;;6149081;23;20049;-61
2022/07/19 13:59:02;;;;;;;7.05;3.33;;;;;;;;;;6150110;23;20021;-60
2022/07/19 14:01:30;;;;;;;7.78;3.60;;;;;;;;;;6149541;23;20025;-60
2022/07/19 14:04:15;;;;;;;9.02;3.55;;;;;;;;;;6148940;23;20022;-58
2022/07/19 14:06:49;;;;;;;5.93;3.28;;;;;;;;;;6148701;23;20026;-60
2022/07/19 14:09:16;;;;;;;6.95;3.70;;;;;;;;;;6149899;23;20026;-60
2022/07/19 14:11:44;;;;;;;5.95;3.38;;;;;;;;;;6150897;23;20344;-59
2022/07/19 14:14:13;;;;;;;6.03;3.72;;;;;;;;;;6150216;23;20100;-60
2022/07/19 14:16:40;;;;;;;7.40;3.42;;;;;;;;;;6150103;23;20092;-60
2022/07/19 14:19:08;;;;;;;5.45;3.40;;;;;;;;;;6152228;23;20331;-60
2022/07/19 14:21:35;;;;;;;7.47;3.30;;;;;;;;;;6151431;23;20030;-61
2022/07/19 14:24:03;;;;;;;;;;;;;;;;;;6152358;23;20021;-60
2022/07/19 14:26:31;;;;;;;5.30;2.92;;;;;;;;;;6150867;23;20318;-62
2022/07/19 14:28:58;;;;;;;3.58;2.72;;;;;;;;;;6151071;23;20025;-60
2022/07/19 14:31:25;;;;;;;7.03;3.40;;;;;;;;;;6150834;23;20026;-61
2022/07/19 14:33:53;;;;;;;5.78;3.00;;;;;;;;;;6150507;23;20032;-61
2022/07/19 14:36:40;;;;;;;5.32;3.03;;;;;;;;;;6151438;23;20104;-61
2022/07/19 14:39:08;;;;;;;4.78;3.00;;;;;;;;;;6151548;23;20033;-56
2022/07/19 14:41:36;;;;;;;7.35;3.40;;;;;;;;;;6150965;23;20403;-54
2022/07/19 14:44:04;;;;;;;5.57;3.03;;;;;;;;;;6151669;23;20467;-50
2022/07/19 14:46:31;;;;;;;5.57;3.47;;;;;;;;;;6151039;23;20026;-55
2022/07/19 14:48:59;;;;;;;4.43;3.30;;;;;;;;;;6152054;23;20049;-53
2022/07/19 14:51:26;;;;;;;;;;;;;;;;;;6151927;23;20076;-51
2022/07/19 14:53:54;;;;;;;6.28;2.90;;;;;;;;;;6149913;23;19920;-49
2022/07/19 14:56:21;;;;;;;4.18;3.08;;;;;;;;;;6149976;23;20022;-60